createdAt,value
2023-01-06T00:01:29.353Z,101678.16
2023-01-06T00:04:00.292Z,101678.06
2023-01-06T00:06:29.264Z,101679.88
2023-01-06T00:09:01.010Z,101677.25
2023-01-06T00:11:27.757Z,101667.72
2023-01-06T00:13:55.969Z,101665.13
2023-01-06T00:16:23.331Z,101663.44
2023-01-06T00:18:49.914Z,101663.47
2023-01-06T00:21:16.610Z,101656.59
2023-01-06T00:23:43.433Z,101652.19
2023-01-06T00:26:10.852Z,101653.03
2023-01-06T00:28:37.983Z,101653.16
2023-01-06T00:31:13.418Z,101649.69
2023-01-06T00:33:41.198Z,101649.69
2023-01-06T00:36:09.434Z,101650.56
2023-01-06T00:38:36.985Z,101644.53
2023-01-06T00:41:33.025Z,101640.16
2023-01-06T00:44:00.168Z,101631.53
2023-01-06T00:46:29.636Z,101629.78
2023-01-06T00:49:05.766Z,101625.44
2023-01-06T00:51:34.480Z,101615.00
2023-01-06T00:54:01.465Z,101615.88
2023-01-06T00:56:27.952Z,101615.94
2023-01-06T00:58:54.450Z,101613.28
2023-01-06T01:01:21.545Z,101612.34
2023-01-06T01:03:48.109Z,101615.00
2023-01-06T01:06:14.605Z,101614.13
2023-01-06T01:08:41.110Z,101618.53
2023-01-06T01:11:10.876Z,101622.84
2023-01-06T01:13:37.400Z,101620.25
2023-01-06T01:16:06.302Z,101614.22
2023-01-06T01:18:34.488Z,101618.47
2023-01-06T01:21:01.452Z,101621.03
2023-01-06T01:23:28.034Z,101622.66
2023-01-06T01:25:55.660Z,101620.06
2023-01-06T01:28:22.319Z,101624.34
2023-01-06T01:30:48.852Z,101629.56
2023-01-06T01:33:15.453Z,101629.44
2023-01-06T01:35:41.939Z,101623.41
2023-01-06T01:38:08.460Z,101620.88
2023-01-06T01:40:34.967Z,101614.03
2023-01-06T01:43:01.527Z,101618.34
2023-01-06T01:45:29.745Z,101617.47
2023-01-06T01:48:03.961Z,101619.16
2023-01-06T01:50:42.472Z,101619.16
2023-01-06T01:53:25.550Z,101613.06
2023-01-06T01:55:55.662Z,101619.91
2023-01-06T01:58:34.218Z,101616.47
2023-01-06T02:01:00.938Z,101610.47
2023-01-06T02:03:27.766Z,101608.69
2023-01-06T02:06:00.047Z,101609.63
2023-01-06T02:08:40.089Z,101605.28
2023-01-06T02:11:07.531Z,101617.47
2023-01-06T02:13:36.951Z,101615.72
2023-01-06T02:16:21.435Z,101612.34
2023-01-06T02:18:55.364Z,101617.63
2023-01-06T02:21:53.033Z,101617.66
2023-01-06T02:24:58.369Z,101612.50
2023-01-06T02:27:59.688Z,101600.41
2023-01-06T02:30:44.315Z,101593.44
2023-01-06T02:33:29.542Z,101596.88
2023-01-06T02:36:08.078Z,101593.38
2023-01-06T02:38:49.896Z,101582.19
2023-01-06T02:41:24.234Z,101576.88
2023-01-06T02:44:14.596Z,101582.03
2023-01-06T02:47:08.560Z,101570.03
2023-01-06T02:49:48.866Z,101565.69
2023-01-06T02:52:32.850Z,101569.19
2023-01-06T02:55:03.515Z,101558.81
2023-01-06T02:57:48.299Z,101556.22
2023-01-06T03:00:22.071Z,101554.47
2023-01-06T03:02:53.871Z,101553.63
2023-01-06T03:05:23.411Z,101559.72
2023-01-06T03:07:51.181Z,101562.28
2023-01-06T03:10:22.136Z,101551.88
2023-01-06T03:12:51.858Z,101550.28
2023-01-06T03:15:18.558Z,101558.13
2023-01-06T03:17:45.308Z,101550.34
2023-01-06T03:20:14.133Z,101551.25
2023-01-06T03:22:41.531Z,101538.28
2023-01-06T03:25:09.459Z,101543.47
2023-01-06T03:27:36.192Z,101540.91
2023-01-06T03:30:09.722Z,101534.88
2023-01-06T03:33:02.784Z,101527.84
2023-01-06T03:35:45.837Z,101527.81
2023-01-06T03:38:31.211Z,101517.50
2023-01-06T03:41:14.915Z,101507.13
2023-01-06T03:43:48.707Z,101508.81
2023-01-06T03:46:34.243Z,101506.19
2023-01-06T03:49:28.692Z,101500.16
2023-01-06T03:52:00.555Z,101507.91
2023-01-06T03:54:58.249Z,101513.13
2023-01-06T03:57:33.965Z,101509.63
2023-01-06T04:00:12.456Z,101498.44
2023-01-06T04:02:40.833Z,101500.22
2023-01-06T04:05:33.661Z,101518.41
2023-01-06T04:08:00.244Z,101517.50
2023-01-06T04:10:26.813Z,101513.22
2023-01-06T04:12:53.748Z,101506.31
2023-01-06T04:15:24.453Z,101510.63
2023-01-06T04:17:51.811Z,101492.38
2023-01-06T04:20:21.151Z,101493.25
2023-01-06T04:22:47.841Z,101486.34
2023-01-06T04:25:14.729Z,101485.56
2023-01-06T04:27:42.794Z,101484.59
2023-01-06T04:30:09.559Z,101485.56
2023-01-06T04:32:36.014Z,101493.34
2023-01-06T04:35:02.671Z,101472.63
2023-01-06T04:37:29.237Z,101470.94
2023-01-06T04:39:55.742Z,101464.97
2023-01-06T04:42:22.342Z,101461.41
2023-01-06T04:44:48.808Z,101455.38
2023-01-06T04:47:15.325Z,101454.44
2023-01-06T04:49:41.829Z,101444.97
2023-01-06T04:52:09.202Z,101457.97
2023-01-06T04:54:36.768Z,101465.75
2023-01-06T04:57:03.417Z,101467.44
2023-01-06T04:59:29.951Z,101457.94
2023-01-06T05:01:56.507Z,101445.81
2023-01-06T05:04:23.052Z,101453.50
2023-01-06T05:06:49.707Z,101456.03
2023-01-06T05:09:16.214Z,101449.06
2023-01-06T05:11:42.776Z,101443.81
2023-01-06T05:14:09.312Z,101457.56
2023-01-06T05:16:36.088Z,101448.00
2023-01-06T05:19:02.861Z,101443.66
2023-01-06T05:21:32.549Z,101441.06
2023-01-06T05:24:00.354Z,101445.41
2023-01-06T05:26:28.753Z,101451.28
2023-01-06T05:28:55.839Z,101446.25
2023-01-06T05:31:24.796Z,101453.06
2023-01-06T05:33:51.470Z,101457.47
2023-01-06T05:36:18.902Z,101458.38
2023-01-06T05:38:50.818Z,101461.91
2023-01-06T05:41:17.417Z,101455.78
2023-01-06T05:43:43.905Z,101456.69
2023-01-06T05:46:11.663Z,101455.00
2023-01-06T05:48:39.441Z,101454.16
2023-01-06T05:51:08.931Z,101459.41
2023-01-06T05:53:37.859Z,101455.00
2023-01-06T05:56:09.692Z,101456.81
2023-01-06T05:58:40.233Z,101453.31
2023-01-06T06:01:07.384Z,101453.38
2023-01-06T06:03:34.048Z,101453.41
2023-01-06T06:06:05.370Z,101449.91
2023-01-06T06:08:32.387Z,101431.78
2023-01-06T06:11:09.382Z,101440.50
2023-01-06T06:13:36.590Z,101430.91
2023-01-06T06:16:08.953Z,101430.91
2023-01-06T06:18:42.888Z,101431.78
2023-01-06T06:21:15.037Z,101413.53
2023-01-06T06:23:42.581Z,101417.88
2023-01-06T06:26:10.713Z,101428.31
2023-01-06T06:28:38.149Z,101426.63
2023-01-06T06:31:09.910Z,101420.59
2023-01-06T06:33:36.599Z,101424.03
2023-01-06T06:36:04.288Z,101430.06
2023-01-06T06:38:30.806Z,101430.06
2023-01-06T06:40:57.320Z,101436.09
2023-01-06T06:43:24.296Z,101424.03
2023-01-06T06:45:50.804Z,101436.97
2023-01-06T06:48:17.516Z,101440.38
2023-01-06T06:50:44.073Z,101436.97
2023-01-06T06:53:10.560Z,101441.31
2023-01-06T06:55:37.312Z,101436.03
2023-01-06T06:58:03.877Z,101436.03
2023-01-06T07:00:30.475Z,101422.25
2023-01-06T07:02:57.467Z,101429.16
2023-01-06T07:05:25.734Z,101429.22
2023-01-06T07:07:52.778Z,101422.25
2023-01-06T07:10:19.844Z,101420.50
2023-01-06T07:12:46.432Z,101423.13
2023-01-06T07:15:12.937Z,101428.31
2023-01-06T07:17:39.721Z,101415.28
2023-01-06T07:20:09.550Z,101414.56
2023-01-06T07:22:40.303Z,101415.44
2023-01-06T07:25:08.854Z,101424.03
2023-01-06T07:27:35.899Z,101410.53
2023-01-06T07:30:03.738Z,101417.31
2023-01-06T07:32:30.309Z,101420.38
2023-01-06T07:34:56.955Z,101420.28
2023-01-06T07:37:23.444Z,101422.97
2023-01-06T07:39:50.043Z,101435.22
2023-01-06T07:42:16.877Z,101429.19
2023-01-06T07:44:43.618Z,101434.19
2023-01-06T07:47:10.769Z,101431.53
2023-01-06T07:49:37.819Z,101428.50
2023-01-06T07:52:04.595Z,101428.56
2023-01-06T07:54:31.226Z,101429.41
2023-01-06T07:56:57.748Z,101427.72
2023-01-06T07:59:24.336Z,101432.88
2023-01-06T08:01:51.007Z,101437.09
2023-01-06T08:04:17.594Z,101440.66
2023-01-06T08:06:44.116Z,101437.19
2023-01-06T08:09:10.665Z,101444.19
2023-01-06T08:11:37.713Z,101433.72
2023-01-06T08:14:04.196Z,101444.09
2023-01-06T08:16:30.704Z,101448.53
2023-01-06T08:18:57.493Z,101457.28
2023-01-06T08:21:24.015Z,101460.81
2023-01-06T08:23:50.512Z,101461.72
2023-01-06T08:26:17.787Z,101455.69
2023-01-06T08:28:45.935Z,101466.13
2023-01-06T08:31:15.696Z,101472.06
2023-01-06T08:33:42.792Z,101467.69
2023-01-06T08:36:12.061Z,101471.16
2023-01-06T08:38:38.717Z,101474.69
2023-01-06T08:41:05.848Z,101482.50
2023-01-06T08:43:32.438Z,101479.00
2023-01-06T08:46:04.087Z,101491.84
2023-01-06T08:48:32.050Z,101492.75
2023-01-06T08:51:12.222Z,101494.56
2023-01-06T08:53:39.470Z,101499.69
2023-01-06T08:56:12.965Z,101504.88
2023-01-06T08:58:39.494Z,101511.78
2023-01-06T09:01:06.073Z,101503.09
2023-01-06T09:03:32.718Z,101516.13
2023-01-06T09:05:59.284Z,101506.63
2023-01-06T09:08:25.786Z,101508.38
2023-01-06T09:10:52.362Z,101505.69
2023-01-06T09:13:18.869Z,101505.78
2023-01-06T09:15:48.955Z,101504.13
2023-01-06T09:18:15.930Z,101506.66
2023-01-06T09:20:42.644Z,101509.38
2023-01-06T09:23:09.203Z,101512.81
2023-01-06T09:25:35.736Z,101525.84
2023-01-06T09:28:02.271Z,101531.94
2023-01-06T09:30:28.836Z,101544.03
2023-01-06T09:32:56.035Z,101553.41
2023-01-06T09:35:22.618Z,101553.50
2023-01-06T09:37:49.663Z,101548.31
2023-01-06T09:40:19.608Z,101555.22
2023-01-06T09:42:50.464Z,101563.16
2023-01-06T09:45:20.579Z,101558.06
2023-01-06T09:47:51.944Z,101564.16
2023-01-06T09:50:42.227Z,101559.66
2023-01-06T09:53:41.272Z,101567.41
2023-01-06T09:56:14.137Z,101571.78
2023-01-06T09:58:48.038Z,101562.09
2023-01-06T10:01:18.693Z,101557.75
2023-01-06T10:03:47.752Z,101563.72
2023-01-06T10:06:24.018Z,101560.44
2023-01-06T10:09:09.507Z,101559.56
2023-01-06T10:12:06.960Z,101564.00
2023-01-06T10:14:48.536Z,101565.75
2023-01-06T10:17:29.262Z,101568.31
2023-01-06T10:20:06.513Z,101565.59
2023-01-06T10:22:32.973Z,101571.59
2023-01-06T10:25:05.566Z,101570.72
2023-01-06T10:27:47.853Z,101576.59
2023-01-06T10:30:43.721Z,101577.50
2023-01-06T10:33:23.103Z,101574.97
2023-01-06T10:35:50.153Z,101572.25
2023-01-06T10:38:17.616Z,101572.25
2023-01-06T10:40:44.253Z,101562.56
2023-01-06T10:43:13.523Z,101555.63
2023-01-06T10:45:44.995Z,101555.63
2023-01-06T10:48:15.473Z,101556.31
2023-01-06T10:50:42.188Z,101552.72
2023-01-06T10:53:12.160Z,101545.84
2023-01-06T10:55:52.014Z,101556.25
2023-01-06T10:58:31.147Z,101552.78
2023-01-06T11:01:08.099Z,101544.13
2023-01-06T11:03:35.426Z,101545.00
2023-01-06T11:06:25.605Z,101556.84
2023-01-06T11:08:52.121Z,101559.16
2023-01-06T11:11:28.156Z,101563.38
2023-01-06T11:14:03.570Z,101562.47
2023-01-06T11:16:36.893Z,101565.78
2023-01-06T11:19:06.658Z,101562.94
2023-01-06T11:21:47.211Z,101562.94
2023-01-06T11:24:21.631Z,101562.94
2023-01-06T11:26:52.061Z,101565.38
2023-01-06T11:29:34.395Z,101564.34
2023-01-06T11:32:19.905Z,101556.28
2023-01-06T11:34:58.856Z,101553.75
2023-01-06T11:37:34.370Z,101558.81
2023-01-06T11:40:17.975Z,101558.81
2023-01-06T11:42:49.518Z,101552.78
2023-01-06T11:45:33.656Z,101552.91
2023-01-06T11:48:01.078Z,101555.34
2023-01-06T11:50:27.640Z,101562.91
2023-01-06T11:53:02.901Z,101561.81
2023-01-06T11:55:32.052Z,101560.25
2023-01-06T11:58:09.305Z,101546.22
2023-01-06T12:00:53.346Z,101548.47
2023-01-06T12:03:20.082Z,101551.88
2023-01-06T12:06:01.855Z,101549.84
2023-01-06T12:08:41.881Z,101551.69
2023-01-06T12:11:17.683Z,101554.19
2023-01-06T12:13:55.837Z,101548.97
2023-01-06T12:16:38.282Z,101553.47
2023-01-06T12:19:14.349Z,101556.28
2023-01-06T12:21:42.553Z,101550.09
2023-01-06T12:24:14.907Z,101548.72
2023-01-06T12:26:43.804Z,101545.84
2023-01-06T12:29:18.400Z,101548.41
2023-01-06T12:31:56.479Z,101548.28
2023-01-06T12:34:37.210Z,101545.66
2023-01-06T12:37:22.464Z,101547.44
2023-01-06T12:39:55.983Z,101538.91
2023-01-06T12:42:29.067Z,101538.09
2023-01-06T12:45:15.457Z,101545.16
2023-01-06T12:47:48.702Z,101547.53
2023-01-06T12:50:30.658Z,101548.41
2023-01-06T12:53:21.452Z,101548.44
2023-01-06T12:56:23.764Z,101539.81
2023-01-06T12:59:02.276Z,101543.53
2023-01-06T13:01:42.556Z,101542.66
2023-01-06T13:04:39.789Z,101537.56
2023-01-06T13:07:28.196Z,101542.56
2023-01-06T13:09:57.643Z,101532.94
2023-01-06T13:12:46.013Z,101542.34
2023-01-06T13:15:34.675Z,101539.88
2023-01-06T13:18:10.276Z,101544.38
2023-01-06T13:20:45.475Z,101537.34
2023-01-06T13:23:15.154Z,101537.22
2023-01-06T13:25:41.683Z,101531.81
2023-01-06T13:28:29.262Z,101542.22
2023-01-06T13:31:12.339Z,101537.47
2023-01-06T13:34:14.009Z,101537.47
2023-01-06T13:37:05.716Z,101537.56
2023-01-06T13:39:41.725Z,101536.84
2023-01-06T13:42:15.854Z,101536.06
2023-01-06T13:44:44.577Z,101540.41
2023-01-06T13:47:16.106Z,101528.25
2023-01-06T13:49:43.163Z,101530.84
2023-01-06T13:52:23.356Z,101529.16
2023-01-06T13:54:51.078Z,101535.34
2023-01-06T13:57:39.273Z,101537.16
2023-01-06T14:00:05.722Z,101536.31
2023-01-06T14:02:35.328Z,101539.88
2023-01-06T14:05:02.564Z,101543.41
2023-01-06T14:07:39.978Z,101541.66
2023-01-06T14:10:27.866Z,101539.97
2023-01-06T14:12:55.840Z,101536.59
2023-01-06T14:15:31.151Z,101542.50
2023-01-06T14:17:59.949Z,101549.53
2023-01-06T14:20:37.132Z,101550.38
2023-01-06T14:23:15.986Z,101554.00
2023-01-06T14:25:43.498Z,101549.00
2023-01-06T14:28:19.390Z,101554.09
2023-01-06T14:30:48.600Z,101551.84
2023-01-06T14:33:42.456Z,101551.00
2023-01-06T14:36:11.881Z,101549.34
2023-01-06T14:38:48.224Z,101547.03
2023-01-06T14:41:26.996Z,101541.06
2023-01-06T14:44:02.992Z,101544.81
2023-01-06T14:46:33.949Z,101529.28
2023-01-06T14:49:03.825Z,101532.84
2023-01-06T14:51:31.603Z,101542.34
2023-01-06T14:54:18.932Z,101550.19
2023-01-06T14:56:56.122Z,101550.06
2023-01-06T14:59:23.203Z,101550.72
2023-01-06T15:02:26.081Z,101546.56
2023-01-06T15:04:57.058Z,101551.03
2023-01-06T15:07:23.560Z,101551.78
2023-01-06T15:09:51.379Z,101555.22
2023-01-06T15:12:36.804Z,101547.38
2023-01-06T15:15:32.367Z,101546.44
2023-01-06T15:18:01.876Z,101551.69
2023-01-06T15:20:43.275Z,101536.09
2023-01-06T15:23:19.259Z,101536.28
2023-01-06T15:25:51.350Z,101538.03
2023-01-06T15:28:29.871Z,101539.97
2023-01-06T15:30:57.433Z,101533.97
2023-01-06T15:33:39.379Z,101540.81
2023-01-06T15:36:07.329Z,101538.34
2023-01-06T15:38:40.377Z,101539.25
2023-01-06T15:41:27.283Z,101546.09
2023-01-06T15:43:53.903Z,101541.75
2023-01-06T15:46:20.492Z,101537.56
2023-01-06T15:48:49.160Z,101541.88
2023-01-06T15:51:18.526Z,101548.88
2023-01-06T15:53:47.419Z,101541.16
2023-01-06T15:56:23.714Z,101547.25
2023-01-06T15:58:52.785Z,101545.59
2023-01-06T16:01:22.532Z,101539.44
2023-01-06T16:03:53.953Z,101532.50
2023-01-06T16:06:31.062Z,101536.97
2023-01-06T16:09:27.726Z,101527.50
2023-01-06T16:12:03.137Z,101519.13
2023-01-06T16:14:35.749Z,101521.84
2023-01-06T16:17:25.070Z,101531.34
2023-01-06T16:20:00.619Z,101533.94
2023-01-06T16:22:32.954Z,101527.03
2023-01-06T16:25:02.844Z,101528.72
2023-01-06T16:27:29.650Z,101539.03
2023-01-06T16:30:14.383Z,101537.31
2023-01-06T16:32:44.095Z,101546.75
2023-01-06T16:35:16.382Z,101548.56
2023-01-06T16:37:43.865Z,101556.31
2023-01-06T16:40:12.987Z,101556.31
2023-01-06T16:42:40.543Z,101554.47
2023-01-06T16:45:09.351Z,101555.44
2023-01-06T16:47:36.099Z,101563.19
2023-01-06T16:50:15.026Z,101563.19
2023-01-06T16:52:42.623Z,101561.41
2023-01-06T16:55:13.128Z,101564.91
2023-01-06T16:57:40.263Z,101561.50
2023-01-06T17:00:21.594Z,101554.53
2023-01-06T17:02:49.574Z,101546.00
2023-01-06T17:05:27.675Z,101543.59
2023-01-06T17:08:00.720Z,101548.03
2023-01-06T17:10:28.215Z,101553.34
2023-01-06T17:13:23.897Z,101561.25
2023-01-06T17:15:52.150Z,101560.44
2023-01-06T17:18:26.596Z,101570.03
2023-01-06T17:21:14.183Z,101564.75
2023-01-06T17:23:54.296Z,101570.88
2023-01-06T17:26:22.137Z,101566.50
2023-01-06T17:28:51.313Z,101571.56
2023-01-06T17:31:41.680Z,101565.41
2023-01-06T17:34:16.029Z,101569.66
2023-01-06T17:36:46.022Z,101561.88
2023-01-06T17:39:18.002Z,101557.53
2023-01-06T17:41:44.543Z,101554.06
2023-01-06T17:44:16.939Z,101542.75
2023-01-06T17:46:44.407Z,101554.78
2023-01-06T17:49:32.800Z,101551.28
2023-01-06T17:52:07.584Z,101554.72
2023-01-06T17:54:52.922Z,101553.75
2023-01-06T17:57:19.556Z,101553.00
2023-01-06T17:59:47.039Z,101551.28
2023-01-06T18:02:42.265Z,101555.63
2023-01-06T18:05:20.986Z,101555.69
2023-01-06T18:07:47.471Z,101554.78
2023-01-06T18:10:18.716Z,101548.75
2023-01-06T18:12:46.350Z,101543.53
2023-01-06T18:15:43.304Z,101547.91
2023-01-06T18:18:23.451Z,101544.56
2023-01-06T18:21:14.709Z,101554.06
2023-01-06T18:23:42.733Z,101567.88
2023-01-06T18:26:27.861Z,101547.13
2023-01-06T18:28:59.456Z,101558.38
2023-01-06T18:31:29.262Z,101548.84
2023-01-06T18:33:56.564Z,101560.13
2023-01-06T18:36:23.063Z,101543.66
2023-01-06T18:38:49.554Z,101552.28
2023-01-06T18:41:16.064Z,101551.53
2023-01-06T18:43:43.266Z,101553.22
2023-01-06T18:46:17.814Z,101557.69
2023-01-06T18:48:45.415Z,101552.44
2023-01-06T18:51:24.139Z,101556.84
2023-01-06T18:53:52.503Z,101552.53
2023-01-06T18:56:24.581Z,101555.94
2023-01-06T18:58:53.387Z,101558.59
2023-01-06T19:01:35.726Z,101560.31
2023-01-06T19:04:22.332Z,101558.53
2023-01-06T19:07:19.569Z,101555.88
2023-01-06T19:09:48.052Z,101561.91
2023-01-06T19:12:30.345Z,101558.53
2023-01-06T19:15:01.036Z,101558.53
2023-01-06T19:17:31.322Z,101557.69
2023-01-06T19:20:02.131Z,101553.22
2023-01-06T19:22:30.235Z,101552.38
2023-01-06T19:25:24.804Z,101556.72
2023-01-06T19:27:59.255Z,101546.34
2023-01-06T19:30:42.712Z,101542.00
2023-01-06T19:33:28.182Z,101542.84
2023-01-06T19:36:37.461Z,101542.00
2023-01-06T19:39:30.770Z,101532.44
2023-01-06T19:42:18.104Z,101529.91
2023-01-06T19:44:47.658Z,101544.56
2023-01-06T19:47:20.305Z,101549.63
2023-01-06T19:49:52.967Z,101550.63
2023-01-06T19:52:31.332Z,101550.69
2023-01-06T19:55:30.961Z,101553.22
2023-01-06T19:58:15.889Z,101547.13
2023-01-06T20:00:46.267Z,101537.66
2023-01-06T20:03:35.531Z,101537.94
2023-01-06T20:06:03.640Z,101543.28
2023-01-06T20:08:30.168Z,101533.09
2023-01-06T20:10:56.644Z,101535.06
2023-01-06T20:13:23.274Z,101536.91
2023-01-06T20:15:50.081Z,101529.97
2023-01-06T20:18:16.675Z,101531.78
2023-01-06T20:20:43.221Z,101525.63
2023-01-06T20:23:09.994Z,101527.31
2023-01-06T20:25:36.944Z,101523.03
2023-01-06T20:28:03.767Z,101526.47
2023-01-06T20:30:30.251Z,101535.16
2023-01-06T20:32:56.807Z,101525.63
2023-01-06T20:35:23.318Z,101523.03
2023-01-06T20:37:49.816Z,101521.50
2023-01-06T20:40:16.339Z,101518.13
2023-01-06T20:42:42.975Z,101523.31
2023-01-06T20:45:13.101Z,101521.50
2023-01-06T20:47:39.943Z,101529.34
2023-01-06T20:50:07.563Z,101530.03
2023-01-06T20:52:35.002Z,101527.53
2023-01-06T20:55:01.762Z,101528.44
2023-01-06T20:57:28.278Z,101538.81
2023-01-06T20:59:54.820Z,101539.56
2023-01-06T21:02:21.535Z,101534.41
2023-01-06T21:04:48.086Z,101528.44
2023-01-06T21:07:14.629Z,101531.03
2023-01-06T21:09:41.096Z,101525.78
2023-01-06T21:12:07.805Z,101526.53
2023-01-06T21:14:34.325Z,101530.81
2023-01-06T21:17:02.807Z,101524.78
2023-01-06T21:19:29.802Z,101528.22
2023-01-06T21:21:56.335Z,101529.97
2023-01-06T21:24:22.862Z,101531.66
2023-01-06T21:26:49.367Z,101527.25
2023-01-06T21:29:15.870Z,101529.81
2023-01-06T21:31:43.831Z,101536.75
2023-01-06T21:34:10.402Z,101531.44
2023-01-06T21:36:36.906Z,101527.09
2023-01-06T21:39:06.376Z,101531.38
2023-01-06T21:41:51.582Z,101531.38
2023-01-06T21:44:18.075Z,101525.41
2023-01-06T21:46:44.542Z,101528.75
2023-01-06T21:49:11.016Z,101525.28
2023-01-06T21:51:37.855Z,101520.03
2023-01-06T21:54:05.261Z,101526.13
2023-01-06T21:56:32.912Z,101521.00
2023-01-06T21:58:59.645Z,101516.59
2023-01-06T22:01:26.450Z,101516.66
2023-01-06T22:03:53.006Z,101522.69
2023-01-06T22:06:20.966Z,101529.56
2023-01-06T22:08:49.361Z,101520.94
2023-01-06T22:11:16.044Z,101521.78
2023-01-06T22:13:42.790Z,101520.78
2023-01-06T22:16:10.409Z,101517.25
2023-01-06T22:18:37.058Z,101518.19
2023-01-06T22:21:03.827Z,101519.03
2023-01-06T22:23:32.161Z,101528.50
2023-01-06T22:25:58.645Z,101517.25
2023-01-06T22:28:25.157Z,101521.56
2023-01-06T22:30:54.279Z,101521.50
2023-01-06T22:33:20.983Z,101525.00
2023-01-06T22:35:47.491Z,101520.72
2023-01-06T22:38:14.283Z,101532.06
2023-01-06T22:40:40.816Z,101538.09
2023-01-06T22:43:07.757Z,101531.09
2023-01-06T22:45:35.049Z,101536.31
2023-01-06T22:48:01.584Z,101525.00
2023-01-06T22:50:28.166Z,101524.94
2023-01-06T22:52:55.881Z,101522.34
2023-01-06T22:55:22.558Z,101524.16
2023-01-06T22:57:49.143Z,101531.09
2023-01-06T23:00:18.120Z,101525.00
2023-01-06T23:02:44.849Z,101524.94
2023-01-06T23:05:11.830Z,101527.53
2023-01-06T23:07:40.009Z,101525.00
2023-01-06T23:10:07.569Z,101532.78
2023-01-06T23:12:39.127Z,101524.09
2023-01-06T23:15:07.272Z,101518.13
2023-01-06T23:17:36.282Z,101517.25
2023-01-06T23:20:02.871Z,101512.13
2023-01-06T23:22:29.390Z,101524.31
2023-01-06T23:24:55.865Z,101514.00
2023-01-06T23:27:22.387Z,101508.81
2023-01-06T23:29:48.876Z,101510.53
2023-01-06T23:32:15.446Z,101509.66
2023-01-06T23:34:42.013Z,101497.56
2023-01-06T23:37:08.554Z,101504.53
2023-01-06T23:39:35.054Z,101513.13
2023-01-06T23:42:01.569Z,101507.97
2023-01-06T23:44:28.241Z,101500.22
2023-01-06T23:46:54.809Z,101507.13
2023-01-06T23:49:21.299Z,101508.88
2023-01-06T23:51:47.906Z,101501.03
2023-01-06T23:54:15.157Z,101501.00
2023-01-06T23:56:42.072Z,101498.34
2023-01-06T23:59:11.393Z,101494.97
